Aérodrome :
LOGIN :

S'inscrire | Disclaimer

   EN    FR    IT 

 










Légende :    VFR   VFR Marginal   IFR   IFR Intensif   IFR Très Intensif
Visi : 
Plafond : 
>= 8 km
>= 3000ft
5 à 8 km
1000 à 3000 ft
1500m à 5 km
500 à 1000 ft
800 à 1500m
200 à 500 ft
< 800m
< 200 ft
Symboles :   Orages  Brouillard  Fortes neiges  Fortes précipitations  Vent > 20 kt
SIGMETs :   Divers  Orages  Givrage  Turbulence  Onde Orograph.  Cendres Volcan.







- Altitude de l'aérodrome : 11 ft
- Code IATA : SXL


EISG - Sligo

DERNIER METAR :
  • 211100Z 29021KT 9999 FEW027 SCT050 12/08 Q1006

METARs EXPIRÉS :
  • 211030Z 29024KT 9999 SCT028 BKN036 12/08 Q1005
  • 211000Z 31023KT 5000 SCT013 BKN024 OVC031 10/08 Q1005
  • 210930Z 29025KT 3200 FEW009 SCT015 BKN036 10/08 Q1004
  • 210900Z 29028KT 9999 SCT031 BKN047 12/07 Q1003
  • 210830Z 29028KT CAVOK 12/07 Q1002

TAF AMD TAF EISG
Valide du 21 à 09h jusqu'au 21 à 18h UTC


210942Z 2109/2118 28025G35KT 9999 FEW012 BKN040
TEMPO 2109/2112 29026G40KT 5000 -SHRA BKN012 SCT018CB
PROB40
TEMPO 2109/2112 3000 SHRA
BECMG 2112/2115 28020G30KT
TEMPO 2112/2115 -SHRA SCT012 FEW018CB
PROB30
TEMPO 2112/2115 5000 SHRA BKN012 SCT018CB
Pas de NOTAMs connus pour ce terrain.
3 SIGMETs publiés pour la FIR Shannon (EISN) :
 
Turbulence forte
EISN SIGMET 03 VALID 211120/211400 EINN
EISN SHANNON FIR SEV TURB FCST WI N5338 W00605 - N5338 W00530 - N5220 W00530 - N5202 W00605 - N5338 W00605 SFC/FL060 MOV E 25KT NC=
Turbulence forte
EISN SIGMET 02 VALID 210900/211200 EINN
EISN SHANNON FIR/UIR SEV TURB FCST WI N5301 W01500 - N5255 W01400 - N5100 W01331 - N5100 W01500 - N5301 W01500 FL200/370 MOV ENE 25KT NC=
Turbulence forte
EISN SIGMET 01 VALID 210806/211206 EINN
EISN SHANNON FIR SEV TURB FCST N OF LINE N5434 W01000 - N5425 W00810 SFC/FL060 MOV SE 30KT NC=



MET'MAP, la Météo Aéronautique d'un coup d'oeil ! - Copyright ORBIFLY Décembre 2007 - Disclaimer

ORBIFLY MET'MAP TEAM :

Programmation & Développement : Alexandra Zaïnal
Conception & Développement : Baudouin d'Aumeries
Co-Programmation & Développement : Marc-Olivier Méhu
Soutien technique & logistique : Manuel Goepfert

Contact : metmap@orbifly.com




SOURCES & CREDITS :

   NOAA